createdAt,value
2022-08-26T00:01:11.726Z,20.70
2022-08-26T00:03:39.225Z,20.70
2022-08-26T00:06:07.130Z,20.70
2022-08-26T00:08:35.669Z,20.70
2022-08-26T00:11:04.852Z,20.70
2022-08-26T00:13:32.735Z,20.70
2022-08-26T00:15:59.981Z,20.60
2022-08-26T00:18:27.339Z,20.60
2022-08-26T00:20:57.435Z,20.60
2022-08-26T00:23:24.131Z,20.60
2022-08-26T00:25:50.742Z,20.50
2022-08-26T00:28:19.002Z,20.50
2022-08-26T00:30:49.154Z,20.50
2022-08-26T00:33:20.010Z,20.50
2022-08-26T00:35:47.831Z,20.50
2022-08-26T00:38:14.996Z,20.50
2022-08-26T00:40:48.626Z,20.40
2022-08-26T00:43:15.946Z,20.40
2022-08-26T00:45:56.537Z,20.40
2022-08-26T00:48:25.659Z,20.40
2022-08-26T00:51:02.194Z,20.20
2022-08-26T00:53:34.425Z,20.20
2022-08-26T00:56:16.926Z,20.20
2022-08-26T00:58:45.394Z,20.20
2022-08-26T01:01:12.372Z,20.10
2022-08-26T01:03:40.534Z,20.20
2022-08-26T01:06:12.362Z,20.10
2022-08-26T01:08:39.597Z,20.10
2022-08-26T01:11:06.718Z,20.20
2022-08-26T01:13:37.300Z,20.20
2022-08-26T01:16:06.378Z,20.20
2022-08-26T01:18:33.269Z,20.10
2022-08-26T01:21:12.364Z,20.10
2022-08-26T01:23:46.035Z,20.10
2022-08-26T01:26:24.274Z,20.10
2022-08-26T01:28:56.612Z,20.20
2022-08-26T01:31:27.171Z,20.20
2022-08-26T01:34:06.727Z,20.20
2022-08-26T01:36:37.976Z,20.30
2022-08-26T01:39:06.049Z,20.30
2022-08-26T01:41:35.019Z,20.30
2022-08-26T01:44:03.226Z,20.30
2022-08-26T01:46:30.439Z,20.30
2022-08-26T01:49:00.397Z,20.30
2022-08-26T01:51:28.182Z,20.30
2022-08-26T01:53:57.755Z,20.30
2022-08-26T01:56:26.572Z,20.30
2022-08-26T01:59:02.872Z,20.30
2022-08-26T02:01:29.455Z,20.20
2022-08-26T02:04:08.046Z,20.20
2022-08-26T02:06:37.301Z,20.20
2022-08-26T02:09:06.043Z,20.10
2022-08-26T02:11:33.572Z,20.10
2022-08-26T02:14:22.906Z,20.20
2022-08-26T02:16:55.319Z,20.20
2022-08-26T02:19:33.295Z,20.10
2022-08-26T02:22:04.308Z,20.20
2022-08-26T02:24:49.896Z,20.20
2022-08-26T02:27:23.666Z,20.10
2022-08-26T02:29:57.086Z,20.10
2022-08-26T02:32:24.574Z,20.10
2022-08-26T02:34:51.448Z,20.20
2022-08-26T02:37:18.283Z,20.20
2022-08-26T02:39:46.644Z,20.10
2022-08-26T02:42:14.690Z,20.20
2022-08-26T02:44:41.237Z,20.20
2022-08-26T02:47:07.877Z,20.20
2022-08-26T02:49:34.704Z,20.20
2022-08-26T02:52:02.035Z,20.20
2022-08-26T02:54:28.660Z,20.20
2022-08-26T02:56:56.037Z,20.20
2022-08-26T02:59:24.382Z,20.20
2022-08-26T03:01:51.509Z,20.20
2022-08-26T03:04:18.077Z,20.10
2022-08-26T03:06:47.022Z,20.10
2022-08-26T03:09:19.653Z,20.10
2022-08-26T03:11:47.232Z,20.10
2022-08-26T03:14:14.160Z,20.10
2022-08-26T03:16:40.687Z,20.10
2022-08-26T03:19:08.918Z,20.00
2022-08-26T03:21:37.252Z,20.00
2022-08-26T03:24:04.743Z,20.00
2022-08-26T03:26:31.518Z,19.90
2022-08-26T03:29:16.707Z,19.90
2022-08-26T03:31:43.370Z,19.80
2022-08-26T03:34:11.279Z,19.80
2022-08-26T03:36:38.665Z,19.80
2022-08-26T03:39:05.725Z,19.80
2022-08-26T03:41:34.881Z,19.70
2022-08-26T03:44:02.405Z,19.70
2022-08-26T03:46:33.010Z,19.80
2022-08-26T03:49:01.467Z,19.80
2022-08-26T03:51:28.760Z,19.80
2022-08-26T03:53:57.082Z,19.70
2022-08-26T03:56:23.831Z,19.70
2022-08-26T03:58:50.914Z,19.70
2022-08-26T04:01:17.805Z,19.80
2022-08-26T04:04:00.025Z,19.70
2022-08-26T04:06:30.386Z,19.60
2022-08-26T04:08:58.777Z,19.60
2022-08-26T04:11:30.388Z,19.60
2022-08-26T04:14:00.074Z,19.70
2022-08-26T04:16:28.097Z,19.70
2022-08-26T04:18:55.574Z,19.70
2022-08-26T04:21:22.577Z,19.70
2022-08-26T04:23:49.575Z,19.80
2022-08-26T04:26:20.263Z,19.80
2022-08-26T04:28:48.625Z,19.80
2022-08-26T04:31:17.675Z,19.90
2022-08-26T04:33:47.627Z,19.90
2022-08-26T04:36:17.261Z,19.90
2022-08-26T04:38:44.788Z,19.90
2022-08-26T04:41:15.271Z,20.00
2022-08-26T04:43:44.476Z,20.00
2022-08-26T04:46:13.051Z,20.10
2022-08-26T04:48:41.008Z,20.10
2022-08-26T04:51:09.080Z,20.10
2022-08-26T04:53:36.820Z,20.20
2022-08-26T04:56:04.191Z,20.20
2022-08-26T04:58:31.024Z,20.20
2022-08-26T05:00:58.413Z,20.30
2022-08-26T05:03:27.347Z,20.40
2022-08-26T05:05:57.762Z,20.40
2022-08-26T05:08:24.262Z,20.40
2022-08-26T05:10:56.086Z,20.40
2022-08-26T05:13:26.191Z,20.30
2022-08-26T05:15:52.910Z,20.40
2022-08-26T05:18:22.704Z,20.50
2022-08-26T05:20:54.554Z,20.60
2022-08-26T05:23:23.129Z,20.70
2022-08-26T05:25:54.649Z,20.80
2022-08-26T05:28:23.673Z,21.00
2022-08-26T05:30:50.533Z,21.20
2022-08-26T05:33:18.371Z,21.40
2022-08-26T05:35:45.294Z,21.50
2022-08-26T05:38:19.336Z,21.30
2022-08-26T05:40:49.553Z,21.60
2022-08-26T05:43:21.209Z,21.40
2022-08-26T05:45:50.200Z,21.40
2022-08-26T05:48:24.076Z,21.50
2022-08-26T05:50:53.161Z,21.70
2022-08-26T05:53:21.747Z,21.70
2022-08-26T05:55:51.814Z,22.00
2022-08-26T05:58:20.850Z,22.10
2022-08-26T06:00:57.026Z,21.90
2022-08-26T06:03:23.578Z,22.30
2022-08-26T06:05:50.037Z,22.70
2022-08-26T06:08:19.270Z,22.60
2022-08-26T06:10:52.734Z,22.90
2022-08-26T06:13:26.786Z,23.00
2022-08-26T06:15:54.493Z,23.30
2022-08-26T06:18:25.163Z,23.20
2022-08-26T06:20:58.005Z,23.80
2022-08-26T06:23:44.666Z,24.10
2022-08-26T06:26:12.613Z,25.90
2022-08-26T06:28:39.059Z,27.10
2022-08-26T06:31:05.976Z,28.80
2022-08-26T06:33:32.790Z,28.30
2022-08-26T06:36:01.003Z,30.20
2022-08-26T06:38:27.512Z,30.20
2022-08-26T06:40:59.780Z,29.80
2022-08-26T06:43:28.579Z,30.30
2022-08-26T06:46:07.154Z,30.90
2022-08-26T06:48:33.882Z,31.60
2022-08-26T06:51:18.297Z,32.80
2022-08-26T06:53:46.929Z,35.20
2022-08-26T06:56:16.792Z,36.10
2022-08-26T06:58:43.527Z,36.40
2022-08-26T07:01:22.615Z,36.80
2022-08-26T07:03:50.985Z,38.00
2022-08-26T07:06:21.092Z,38.40
2022-08-26T07:08:48.926Z,37.40
2022-08-26T07:11:16.385Z,37.40
2022-08-26T07:13:43.371Z,37.80
2022-08-26T07:16:12.545Z,37.20
2022-08-26T07:18:42.436Z,37.60
2022-08-26T07:21:13.845Z,37.60
2022-08-26T07:23:41.314Z,39.70
2022-08-26T07:26:12.591Z,40.50
2022-08-26T07:28:39.403Z,38.90
2022-08-26T07:31:09.663Z,39.70
2022-08-26T07:33:36.931Z,39.70
2022-08-26T07:36:04.202Z,38.50
2022-08-26T07:38:31.041Z,38.90
2022-08-26T07:41:02.423Z,40.50
2022-08-26T07:43:29.682Z,41.30
2022-08-26T07:45:56.691Z,42.30
2022-08-26T07:48:23.706Z,41.40
2022-08-26T07:50:50.944Z,40.30
2022-08-26T07:53:21.403Z,40.60
2022-08-26T07:55:49.397Z,41.60
2022-08-26T07:58:17.156Z,41.80
2022-08-26T08:00:43.637Z,43.80
2022-08-26T08:03:11.299Z,44.00
2022-08-26T08:05:38.150Z,43.10
2022-08-26T08:08:26.278Z,42.70
2022-08-26T08:10:55.475Z,43.00
2022-08-26T08:13:22.993Z,42.80
2022-08-26T08:15:50.719Z,44.00
2022-08-26T08:18:17.816Z,44.10
2022-08-26T08:21:04.679Z,44.70
2022-08-26T08:23:33.006Z,43.10
2022-08-26T08:26:09.826Z,43.60
2022-08-26T08:28:39.451Z,44.00
2022-08-26T08:31:08.089Z,44.40
2022-08-26T08:33:35.229Z,41.70
2022-08-26T08:36:02.086Z,42.40
2022-08-26T08:38:29.263Z,42.00
2022-08-26T08:40:55.706Z,41.80
2022-08-26T08:43:38.326Z,40.90
2022-08-26T08:46:10.410Z,41.10
2022-08-26T08:48:41.741Z,41.20
2022-08-26T08:51:30.315Z,43.10
2022-08-26T08:53:56.850Z,42.90
2022-08-26T08:56:38.922Z,43.10
2022-08-26T08:59:17.695Z,40.50
2022-08-26T09:01:58.566Z,39.30
2022-08-26T09:04:46.943Z,39.70
2022-08-26T09:07:19.153Z,39.70
2022-08-26T09:10:04.569Z,38.70
2022-08-26T09:12:33.890Z,40.80
2022-08-26T09:15:25.424Z,42.30
2022-08-26T09:18:16.726Z,42.10
2022-08-26T09:20:58.263Z,43.60
2022-08-26T09:23:26.172Z,44.70
2022-08-26T09:26:00.353Z,41.80
2022-08-26T09:28:30.742Z,40.20
2022-08-26T09:31:19.296Z,38.80
2022-08-26T09:33:47.773Z,37.80
2022-08-26T09:36:41.530Z,38.40
2022-08-26T09:39:28.158Z,37.80
2022-08-26T09:42:10.258Z,38.90
2022-08-26T09:44:58.442Z,38.50
2022-08-26T09:47:31.791Z,38.20
2022-08-26T09:50:12.538Z,39.00
2022-08-26T09:52:40.491Z,40.20
2022-08-26T09:55:22.270Z,39.00
2022-08-26T09:57:55.914Z,38.10
2022-08-26T10:00:30.005Z,36.50
2022-08-26T10:02:59.153Z,36.90
2022-08-26T10:05:39.348Z,36.80
2022-08-26T10:08:21.482Z,36.80
2022-08-26T10:10:53.058Z,36.40
2022-08-26T10:13:35.056Z,36.20
2022-08-26T10:16:15.666Z,36.20
2022-08-26T10:18:47.723Z,35.40
2022-08-26T10:21:23.011Z,34.80
2022-08-26T10:23:52.240Z,34.50
2022-08-26T10:26:57.490Z,35.00
2022-08-26T10:29:45.689Z,35.90
2022-08-26T10:32:20.437Z,37.70
2022-08-26T10:34:47.472Z,37.00
2022-08-26T10:37:18.479Z,37.20
2022-08-26T10:40:07.483Z,37.00
2022-08-26T10:42:37.572Z,39.00
2022-08-26T10:45:11.698Z,39.30
2022-08-26T10:47:57.124Z,37.40
2022-08-26T10:50:32.796Z,36.70
2022-08-26T10:53:19.495Z,36.10
2022-08-26T10:56:29.218Z,34.80
2022-08-26T10:59:14.595Z,34.80
2022-08-26T11:01:52.454Z,34.80
2022-08-26T11:04:38.506Z,34.10
2022-08-26T11:07:42.611Z,34.70
2022-08-26T11:10:21.655Z,35.30
2022-08-26T11:12:51.746Z,34.30
2022-08-26T11:15:19.856Z,35.30
2022-08-26T11:17:51.251Z,34.90
2022-08-26T11:20:29.934Z,35.40
2022-08-26T11:23:28.189Z,35.30
2022-08-26T11:26:30.037Z,34.40
2022-08-26T11:29:01.339Z,31.50
2022-08-26T11:31:30.504Z,30.60
2022-08-26T11:34:00.127Z,30.30
2022-08-26T11:36:40.124Z,30.30
2022-08-26T11:39:28.847Z,30.80
2022-08-26T11:42:00.028Z,30.70
2022-08-26T11:44:36.080Z,29.80
2022-08-26T11:47:03.081Z,29.50
2022-08-26T11:49:31.830Z,29.20
2022-08-26T11:52:08.143Z,28.90
2022-08-26T11:54:35.480Z,28.10
2022-08-26T11:57:09.292Z,27.10
2022-08-26T11:59:39.935Z,27.10
2022-08-26T12:02:15.288Z,26.70
2022-08-26T12:04:46.146Z,26.90
2022-08-26T12:07:12.835Z,27.10
2022-08-26T12:09:56.384Z,26.90
2022-08-26T12:12:42.456Z,27.20
2022-08-26T12:15:16.283Z,26.80
2022-08-26T12:17:44.002Z,26.10
2022-08-26T12:20:28.952Z,26.00
2022-08-26T12:22:56.585Z,25.90
2022-08-26T12:25:24.884Z,25.70
2022-08-26T12:27:54.049Z,25.90
2022-08-26T12:30:26.174Z,26.10
2022-08-26T12:33:21.933Z,25.70
2022-08-26T12:35:54.308Z,25.80
2022-08-26T12:38:24.598Z,25.30
2022-08-26T12:40:51.110Z,24.70
2022-08-26T12:43:38.934Z,24.20
2022-08-26T12:46:06.648Z,24.40
2022-08-26T12:48:36.236Z,24.20
2022-08-26T12:51:03.673Z,24.50
2022-08-26T12:53:33.388Z,24.90
2022-08-26T12:56:18.310Z,24.50
2022-08-26T12:58:45.147Z,24.30
2022-08-26T13:01:11.694Z,24.20
2022-08-26T13:03:46.098Z,24.00
2022-08-26T13:06:22.202Z,23.70
2022-08-26T13:08:59.891Z,23.70
2022-08-26T13:11:28.147Z,23.70
2022-08-26T13:14:00.548Z,23.50
2022-08-26T13:16:28.743Z,23.50
2022-08-26T13:18:59.270Z,23.50
2022-08-26T13:21:29.111Z,23.50
2022-08-26T13:24:09.102Z,23.80
2022-08-26T13:26:35.615Z,23.80
2022-08-26T13:29:05.310Z,24.00
2022-08-26T13:31:36.370Z,23.80
2022-08-26T13:34:04.142Z,23.50
2022-08-26T13:36:31.436Z,23.40
2022-08-26T13:38:58.017Z,23.20
2022-08-26T13:41:29.334Z,23.20
2022-08-26T13:43:56.376Z,23.30
2022-08-26T13:46:23.056Z,23.10
2022-08-26T13:48:49.590Z,23.10
2022-08-26T13:51:18.464Z,23.20
2022-08-26T13:53:45.299Z,22.80
2022-08-26T13:56:11.925Z,22.90
2022-08-26T13:58:38.787Z,23.10
2022-08-26T14:01:05.349Z,22.90
2022-08-26T14:03:32.134Z,22.80
2022-08-26T14:05:59.294Z,22.80
2022-08-26T14:08:26.183Z,22.70
2022-08-26T14:10:52.709Z,22.80
2022-08-26T14:13:19.589Z,22.60
2022-08-26T14:15:46.592Z,22.60
2022-08-26T14:18:16.922Z,22.70
2022-08-26T14:20:50.210Z,22.40
2022-08-26T14:23:18.003Z,22.20
2022-08-26T14:25:44.997Z,22.10
2022-08-26T14:28:12.042Z,22.10
2022-08-26T14:30:44.335Z,21.90
2022-08-26T14:33:13.053Z,22.00
2022-08-26T14:35:39.892Z,22.00
2022-08-26T14:38:14.471Z,21.90
2022-08-26T14:40:46.784Z,21.50
2022-08-26T14:43:15.305Z,21.60
2022-08-26T14:45:45.139Z,21.50
2022-08-26T14:48:11.750Z,21.70
2022-08-26T14:50:39.282Z,21.80
2022-08-26T14:53:24.230Z,22.00
2022-08-26T14:55:50.854Z,21.90
2022-08-26T14:58:17.444Z,22.00
2022-08-26T15:00:43.978Z,21.90
2022-08-26T15:03:10.552Z,22.00
2022-08-26T15:05:37.193Z,22.00
2022-08-26T15:08:10.197Z,22.10
2022-08-26T15:10:36.982Z,21.80
2022-08-26T15:13:03.457Z,21.90
2022-08-26T15:15:29.933Z,21.80
2022-08-26T15:17:57.168Z,21.80
2022-08-26T15:20:23.936Z,21.80
2022-08-26T15:22:50.518Z,21.80
2022-08-26T15:25:17.897Z,21.60
2022-08-26T15:27:44.547Z,21.50
2022-08-26T15:30:12.088Z,21.60
2022-08-26T15:32:38.610Z,21.70
2022-08-26T15:35:09.129Z,21.70
2022-08-26T15:37:36.405Z,21.70
2022-08-26T15:40:04.624Z,21.80
2022-08-26T15:42:31.400Z,21.40
2022-08-26T15:44:58.114Z,21.40
2022-08-26T15:47:24.895Z,21.40
2022-08-26T15:49:51.502Z,21.50
2022-08-26T15:52:19.510Z,21.60
2022-08-26T15:54:46.044Z,21.40
2022-08-26T15:57:15.305Z,21.50
2022-08-26T15:59:43.049Z,21.40
2022-08-26T16:02:09.791Z,21.30
2022-08-26T16:04:36.282Z,21.20
2022-08-26T16:07:04.390Z,21.10
2022-08-26T16:09:30.925Z,21.10
2022-08-26T16:11:58.101Z,21.20
2022-08-26T16:14:26.014Z,21.00
2022-08-26T16:16:53.695Z,21.00
2022-08-26T16:19:21.049Z,21.00
2022-08-26T16:21:48.088Z,21.00
2022-08-26T16:24:15.257Z,21.10
2022-08-26T16:26:43.863Z,21.10
2022-08-26T16:29:12.746Z,21.00
2022-08-26T16:31:39.633Z,20.90
2022-08-26T16:34:07.323Z,21.10
2022-08-26T16:36:34.608Z,21.10
2022-08-26T16:39:01.307Z,21.30
2022-08-26T16:41:29.490Z,21.40
2022-08-26T16:43:56.272Z,21.50
2022-08-26T16:46:25.656Z,21.60
2022-08-26T16:48:53.942Z,21.40
2022-08-26T16:51:23.022Z,21.60
2022-08-26T16:53:50.965Z,21.50
2022-08-26T16:56:21.879Z,21.30
2022-08-26T16:58:48.854Z,21.00
2022-08-26T17:01:16.446Z,21.20
2022-08-26T17:03:43.174Z,21.30
2022-08-26T17:06:10.061Z,21.20
2022-08-26T17:08:37.696Z,21.40
2022-08-26T17:11:04.303Z,21.40
2022-08-26T17:13:34.611Z,21.40
2022-08-26T17:16:04.820Z,21.50
2022-08-26T17:18:32.412Z,21.30
2022-08-26T17:21:08.392Z,21.20
2022-08-26T17:23:35.856Z,21.50
2022-08-26T17:26:02.766Z,21.40
2022-08-26T17:28:29.331Z,21.20
2022-08-26T17:30:57.546Z,21.10
2022-08-26T17:33:25.292Z,21.10
2022-08-26T17:35:52.971Z,21.00
2022-08-26T17:38:21.209Z,21.00
2022-08-26T17:40:48.104Z,21.10
2022-08-26T17:43:14.567Z,20.90
2022-08-26T17:45:41.442Z,21.00
2022-08-26T17:48:08.124Z,21.00
2022-08-26T17:50:34.889Z,21.20
2022-08-26T17:53:01.510Z,21.10
2022-08-26T17:55:27.998Z,21.30
2022-08-26T17:57:54.467Z,21.30
2022-08-26T18:00:22.917Z,20.90
2022-08-26T18:02:49.415Z,20.90
2022-08-26T18:05:17.430Z,21.10
2022-08-26T18:07:44.771Z,21.20
2022-08-26T18:10:15.398Z,21.20
2022-08-26T18:12:42.479Z,21.00
2022-08-26T18:15:11.560Z,21.00
2022-08-26T18:17:41.742Z,21.10
2022-08-26T18:20:12.605Z,21.00
2022-08-26T18:22:39.541Z,20.90
2022-08-26T18:25:08.015Z,20.90
2022-08-26T18:27:36.139Z,20.70
2022-08-26T18:30:10.501Z,20.70
2022-08-26T18:32:38.887Z,20.90
2022-08-26T18:35:05.644Z,21.00
2022-08-26T18:37:32.359Z,20.90
2022-08-26T18:39:59.563Z,20.90
2022-08-26T18:42:26.631Z,20.90
2022-08-26T18:44:53.466Z,20.90
2022-08-26T18:47:20.115Z,20.80
2022-08-26T18:49:47.261Z,20.70
2022-08-26T18:52:13.715Z,20.70
2022-08-26T18:54:40.255Z,20.80
2022-08-26T18:57:07.135Z,20.80
2022-08-26T18:59:33.707Z,20.70
2022-08-26T19:02:00.233Z,20.70
2022-08-26T19:04:26.829Z,20.60
2022-08-26T19:06:53.871Z,20.60
2022-08-26T19:09:20.929Z,20.50
2022-08-26T19:11:49.681Z,20.60
2022-08-26T19:14:17.546Z,20.70
2022-08-26T19:16:46.503Z,20.70
2022-08-26T19:19:13.862Z,20.50
2022-08-26T19:21:40.478Z,20.50
2022-08-26T19:24:12.215Z,20.50
2022-08-26T19:26:39.053Z,20.50
2022-08-26T19:29:05.670Z,20.40
2022-08-26T19:31:32.135Z,20.40
2022-08-26T19:33:58.988Z,20.60
2022-08-26T19:36:27.040Z,20.60
2022-08-26T19:38:54.374Z,20.70
2022-08-26T19:41:36.890Z,20.40
2022-08-26T19:44:07.603Z,20.50
2022-08-26T19:46:34.301Z,20.50
2022-08-26T19:49:00.880Z,20.50
2022-08-26T19:51:30.232Z,20.50
2022-08-26T19:53:59.230Z,20.50
2022-08-26T19:56:28.650Z,20.40
2022-08-26T19:58:55.734Z,20.50
2022-08-26T20:01:22.913Z,20.60
2022-08-26T20:03:49.708Z,20.70
2022-08-26T20:06:16.819Z,20.80
2022-08-26T20:08:45.326Z,20.90
2022-08-26T20:11:17.084Z,20.80
2022-08-26T20:13:44.611Z,20.90
2022-08-26T20:16:12.317Z,20.70
2022-08-26T20:18:59.181Z,20.70
2022-08-26T20:21:26.205Z,20.70
2022-08-26T20:24:00.447Z,20.70
2022-08-26T20:26:29.488Z,20.60
2022-08-26T20:28:56.592Z,20.70
2022-08-26T20:31:24.108Z,20.60
2022-08-26T20:33:51.687Z,20.70
2022-08-26T20:36:20.595Z,20.70
2022-08-26T20:38:48.326Z,20.70
2022-08-26T20:41:14.866Z,20.70
2022-08-26T20:43:42.940Z,20.70
2022-08-26T20:46:17.960Z,20.70
2022-08-26T20:48:46.486Z,20.60
2022-08-26T20:51:13.019Z,20.60
2022-08-26T20:53:41.351Z,20.60
2022-08-26T20:56:09.619Z,20.70
2022-08-26T20:58:38.563Z,20.70
2022-08-26T21:01:07.970Z,20.60
2022-08-26T21:03:35.999Z,20.60
2022-08-26T21:06:03.749Z,20.70
2022-08-26T21:08:33.462Z,20.70
2022-08-26T21:11:00.580Z,20.60
2022-08-26T21:13:27.328Z,20.60
2022-08-26T21:15:58.070Z,20.70
2022-08-26T21:18:24.613Z,20.60
2022-08-26T21:20:51.641Z,20.70
2022-08-26T21:23:19.068Z,20.60
2022-08-26T21:25:45.903Z,20.70
2022-08-26T21:28:12.346Z,20.80
2022-08-26T21:30:40.060Z,20.70
2022-08-26T21:33:07.366Z,20.60
2022-08-26T21:35:33.886Z,20.60
2022-08-26T21:38:00.506Z,20.50
2022-08-26T21:40:27.766Z,20.50
2022-08-26T21:42:54.352Z,20.50
2022-08-26T21:45:20.892Z,20.50
2022-08-26T21:47:47.343Z,20.60
2022-08-26T21:50:13.938Z,20.50
2022-08-26T21:52:40.615Z,20.60
2022-08-26T21:55:08.977Z,20.70
2022-08-26T21:57:35.598Z,20.60
2022-08-26T22:00:04.556Z,20.50
2022-08-26T22:02:31.868Z,20.40
2022-08-26T22:04:58.563Z,20.50
2022-08-26T22:07:25.062Z,20.50
2022-08-26T22:09:51.546Z,20.50
2022-08-26T22:12:21.326Z,20.30
2022-08-26T22:14:48.679Z,20.30
2022-08-26T22:17:15.746Z,20.40
2022-08-26T22:19:46.083Z,20.40
2022-08-26T22:22:14.077Z,20.30
2022-08-26T22:24:40.526Z,20.40
2022-08-26T22:27:07.062Z,20.40
2022-08-26T22:29:33.695Z,20.40
2022-08-26T22:32:00.938Z,20.30
2022-08-26T22:34:28.059Z,20.40
2022-08-26T22:36:54.606Z,20.40
2022-08-26T22:39:23.404Z,20.40
2022-08-26T22:41:52.315Z,20.40
2022-08-26T22:44:20.626Z,20.40
2022-08-26T22:46:48.689Z,20.10
2022-08-26T22:49:16.422Z,20.20
2022-08-26T22:51:44.143Z,20.10
2022-08-26T22:54:11.060Z,20.10
2022-08-26T22:56:37.996Z,20.00
2022-08-26T22:59:09.168Z,20.00
2022-08-26T23:01:38.462Z,20.00
2022-08-26T23:04:06.632Z,19.90
2022-08-26T23:06:37.734Z,20.00
2022-08-26T23:09:05.390Z,19.90
2022-08-26T23:11:32.196Z,19.80
2022-08-26T23:13:58.642Z,19.90
2022-08-26T23:16:28.036Z,19.80
2022-08-26T23:19:02.353Z,19.80
2022-08-26T23:21:28.955Z,19.90
2022-08-26T23:23:55.634Z,19.80
2022-08-26T23:26:22.083Z,19.80
2022-08-26T23:28:49.783Z,19.80
2022-08-26T23:31:16.324Z,19.80
2022-08-26T23:34:01.591Z,19.90
2022-08-26T23:36:30.284Z,19.90
2022-08-26T23:38:57.297Z,20.00
2022-08-26T23:41:24.359Z,19.90
2022-08-26T23:43:51.711Z,20.10
2022-08-26T23:46:18.858Z,20.20
2022-08-26T23:48:45.674Z,20.20
2022-08-26T23:51:31.346Z,20.30
2022-08-26T23:53:57.895Z,20.20
2022-08-26T23:56:24.772Z,20.30
2022-08-26T23:58:54.974Z,20.40
